sensor_id;sensor_type;location;lat;lon;timestamp;temperature;humidity
5011;DHT22;2524;54.364;10.072;2024-03-02T00:02:11;9.50;99.90
5011;DHT22;2524;54.364;10.072;2024-03-02T00:04:37;9.50;99.90
5011;DHT22;2524;54.364;10.072;2024-03-02T00:07:03;9.50;99.90
5011;DHT22;2524;54.364;10.072;2024-03-02T00:09:29;9.40;99.90
5011;DHT22;2524;54.364;10.072;2024-03-02T00:11:55;9.40;99.90
5011;DHT22;2524;54.364;10.072;2024-03-02T00:14:20;9.40;99.90
5011;DHT22;2524;54.364;10.072;2024-03-02T00:16:46;9.50;99.90
5011;DHT22;2524;54.364;10.072;2024-03-02T00:19:14;9.40;99.90
5011;DHT22;2524;54.364;10.072;2024-03-02T00:21:40;9.50;99.90
5011;DHT22;2524;54.364;10.072;2024-03-02T00:24:23;9.50;99.90
5011;DHT22;2524;54.364;10.072;2024-03-02T00:26:50;9.50;99.90
5011;DHT22;2524;54.364;10.072;2024-03-02T00:29:16;9.40;99.90
5011;DHT22;2524;54.364;10.072;2024-03-02T00:31:44;9.40;99.90
5011;DHT22;2524;54.364;10.072;2024-03-02T00:34:12;9.40;99.90
5011;DHT22;2524;54.364;10.072;2024-03-02T00:36:39;9.40;99.90
5011;DHT22;2524;54.364;10.072;2024-03-02T00:39:05;9.40;99.90
5011;DHT22;2524;54.364;10.072;2024-03-02T00:41:33;9.40;99.90
5011;DHT22;2524;54.364;10.072;2024-03-02T00:44:06;9.40;99.90
5011;DHT22;2524;54.364;10.072;2024-03-02T00:49:01;9.40;99.90
5011;DHT22;2524;54.364;10.072;2024-03-02T00:51:31;9.40;99.90
5011;DHT22;2524;54.364;10.072;2024-03-02T00:54:03;9.40;99.90
5011;DHT22;2524;54.364;10.072;2024-03-02T00:56:30;9.40;99.90
5011;DHT22;2524;54.364;10.072;2024-03-02T00:58:56;9.50;99.90
5011;DHT22;2524;54.364;10.072;2024-03-02T01:01:21;9.50;99.90
5011;DHT22;2524;54.364;10.072;2024-03-02T01:03:48;9.40;99.90
5011;DHT22;2524;54.364;10.072;2024-03-02T01:06:17;9.50;99.90
5011;DHT22;2524;54.364;10.072;2024-03-02T01:08:43;9.40;99.90
5011;DHT22;2524;54.364;10.072;2024-03-02T01:11:09;9.30;99.90
5011;DHT22;2524;54.364;10.072;2024-03-02T01:13:35;9.30;99.90
5011;DHT22;2524;54.364;10.072;2024-03-02T01:16:01;9.30;99.90
5011;DHT22;2524;54.364;10.072;2024-03-02T01:18:27;9.30;99.90
5011;DHT22;2524;54.364;10.072;2024-03-02T01:20:52;9.30;99.90
5011;DHT22;2524;54.364;10.072;2024-03-02T01:23:20;9.30;99.90
5011;DHT22;2524;54.364;10.072;2024-03-02T01:25:50;9.20;99.90
5011;DHT22;2524;54.364;10.072;2024-03-02T01:28:16;9.20;99.90
5011;DHT22;2524;54.364;10.072;2024-03-02T01:30:42;9.20;99.90
5011;DHT22;2524;54.364;10.072;2024-03-02T01:33:08;9.20;99.90
5011;DHT22;2524;54.364;10.072;2024-03-02T01:35:33;9.20;99.90
5011;DHT22;2524;54.364;10.072;2024-03-02T01:38:00;9.20;99.90
5011;DHT22;2524;54.364;10.072;2024-03-02T01:40:26;9.20;99.90
5011;DHT22;2524;54.364;10.072;2024-03-02T01:42:53;9.20;99.90
5011;DHT22;2524;54.364;10.072;2024-03-02T01:45:24;9.40;99.90
5011;DHT22;2524;54.364;10.072;2024-03-02T01:47:49;9.20;99.90
5011;DHT22;2524;54.364;10.072;2024-03-02T01:50:16;9.20;99.90
5011;DHT22;2524;54.364;10.072;2024-03-02T01:52:42;9.40;99.90
5011;DHT22;2524;54.364;10.072;2024-03-02T01:55:09;9.30;99.90
5011;DHT22;2524;54.364;10.072;2024-03-02T01:57:35;9.20;99.90
5011;DHT22;2524;54.364;10.072;2024-03-02T02:00:02;9.20;99.90
5011;DHT22;2524;54.364;10.072;2024-03-02T02:02:28;9.20;99.90
5011;DHT22;2524;54.364;10.072;2024-03-02T02:04:54;9.30;99.90
5011;DHT22;2524;54.364;10.072;2024-03-02T02:07:20;9.30;99.90
5011;DHT22;2524;54.364;10.072;2024-03-02T02:09:45;9.30;99.90
5011;DHT22;2524;54.364;10.072;2024-03-02T02:12:11;9.30;99.90
5011;DHT22;2524;54.364;10.072;2024-03-02T02:14:37;9.20;99.90
5011;DHT22;2524;54.364;10.072;2024-03-02T02:17:02;9.20;99.90
5011;DHT22;2524;54.364;10.072;2024-03-02T02:19:28;9.20;99.90
5011;DHT22;2524;54.364;10.072;2024-03-02T02:21:54;9.20;99.90
5011;DHT22;2524;54.364;10.072;2024-03-02T02:24:20;9.20;99.90
5011;DHT22;2524;54.364;10.072;2024-03-02T02:26:45;9.20;99.90
5011;DHT22;2524;54.364;10.072;2024-03-02T02:29:11;9.20;99.90
5011;DHT22;2524;54.364;10.072;2024-03-02T02:31:40;9.30;99.90
5011;DHT22;2524;54.364;10.072;2024-03-02T02:34:07;9.10;99.90
5011;DHT22;2524;54.364;10.072;2024-03-02T02:36:33;9.20;99.90
5011;DHT22;2524;54.364;10.072;2024-03-02T02:39:04;9.20;99.90
5011;DHT22;2524;54.364;10.072;2024-03-02T02:41:30;9.30;99.90
5011;DHT22;2524;54.364;10.072;2024-03-02T02:43:56;9.10;99.90
5011;DHT22;2524;54.364;10.072;2024-03-02T02:46:22;9.10;99.90
5011;DHT22;2524;54.364;10.072;2024-03-02T02:48:47;9.10;99.90
5011;DHT22;2524;54.364;10.072;2024-03-02T02:51:13;9.10;99.90
5011;DHT22;2524;54.364;10.072;2024-03-02T02:53:39;9.10;99.90
5011;DHT22;2524;54.364;10.072;2024-03-02T02:56:08;9.10;99.90
5011;DHT22;2524;54.364;10.072;2024-03-02T02:58:33;9.10;99.90
5011;DHT22;2524;54.364;10.072;2024-03-02T03:00:59;9.20;99.90
5011;DHT22;2524;54.364;10.072;2024-03-02T03:03:25;9.10;99.90
5011;DHT22;2524;54.364;10.072;2024-03-02T03:05:51;9.10;99.90
5011;DHT22;2524;54.364;10.072;2024-03-02T03:08:16;9.10;99.90
5011;DHT22;2524;54.364;10.072;2024-03-02T03:10:42;9.20;99.90
5011;DHT22;2524;54.364;10.072;2024-03-02T03:13:08;9.00;99.90
5011;DHT22;2524;54.364;10.072;2024-03-02T03:15:39;9.00;99.90
5011;DHT22;2524;54.364;10.072;2024-03-02T03:18:04;9.00;99.90
5011;DHT22;2524;54.364;10.072;2024-03-02T03:20:31;9.00;99.90
5011;DHT22;2524;54.364;10.072;2024-03-02T03:22:57;9.10;99.90
5011;DHT22;2524;54.364;10.072;2024-03-02T03:25:22;9.10;99.90
5011;DHT22;2524;54.364;10.072;2024-03-02T03:27:48;9.00;99.90
5011;DHT22;2524;54.364;10.072;2024-03-02T03:30:14;8.90;99.90
5011;DHT22;2524;54.364;10.072;2024-03-02T03:32:40;8.90;99.90
5011;DHT22;2524;54.364;10.072;2024-03-02T03:35:06;9.00;99.90
5011;DHT22;2524;54.364;10.072;2024-03-02T03:37:32;8.90;99.90
5011;DHT22;2524;54.364;10.072;2024-03-02T03:40:04;8.90;99.90
5011;DHT22;2524;54.364;10.072;2024-03-02T03:42:38;8.90;99.90
5011;DHT22;2524;54.364;10.072;2024-03-02T03:45:05;8.90;99.90
5011;DHT22;2524;54.364;10.072;2024-03-02T03:47:33;8.80;99.90
5011;DHT22;2524;54.364;10.072;2024-03-02T03:49:59;9.00;99.90
5011;DHT22;2524;54.364;10.072;2024-03-02T03:52:25;9.00;99.90
5011;DHT22;2524;54.364;10.072;2024-03-02T03:54:51;8.90;99.90
5011;DHT22;2524;54.364;10.072;2024-03-02T03:57:17;8.90;99.90
5011;DHT22;2524;54.364;10.072;2024-03-02T03:59:42;8.80;99.90
5011;DHT22;2524;54.364;10.072;2024-03-02T04:02:08;9.00;99.90
5011;DHT22;2524;54.364;10.072;2024-03-02T04:04:34;8.90;99.90
5011;DHT22;2524;54.364;10.072;2024-03-02T04:07:01;8.90;99.90
5011;DHT22;2524;54.364;10.072;2024-03-02T04:09:27;8.90;99.90
5011;DHT22;2524;54.364;10.072;2024-03-02T04:11:53;8.90;99.90
5011;DHT22;2524;54.364;10.072;2024-03-02T04:14:19;8.90;99.90
5011;DHT22;2524;54.364;10.072;2024-03-02T04:16:46;8.90;99.90
5011;DHT22;2524;54.364;10.072;2024-03-02T04:19:12;9.00;99.90
5011;DHT22;2524;54.364;10.072;2024-03-02T04:21:38;8.80;99.90
5011;DHT22;2524;54.364;10.072;2024-03-02T04:24:03;8.90;99.90
5011;DHT22;2524;54.364;10.072;2024-03-02T04:26:29;8.80;99.90
5011;DHT22;2524;54.364;10.072;2024-03-02T04:28:55;8.90;99.90
5011;DHT22;2524;54.364;10.072;2024-03-02T04:31:21;9.00;99.90
5011;DHT22;2524;54.364;10.072;2024-03-02T04:33:48;8.90;99.90
5011;DHT22;2524;54.364;10.072;2024-03-02T04:36:14;8.80;99.90
5011;DHT22;2524;54.364;10.072;2024-03-02T04:38:40;8.80;99.90
5011;DHT22;2524;54.364;10.072;2024-03-02T04:41:06;8.90;99.90
5011;DHT22;2524;54.364;10.072;2024-03-02T04:43:33;8.80;99.90
5011;DHT22;2524;54.364;10.072;2024-03-02T04:45:59;8.90;99.90
5011;DHT22;2524;54.364;10.072;2024-03-02T04:48:25;8.80;99.90
5011;DHT22;2524;54.364;10.072;2024-03-02T04:50:50;8.80;99.90
5011;DHT22;2524;54.364;10.072;2024-03-02T04:53:16;8.80;99.90
5011;DHT22;2524;54.364;10.072;2024-03-02T04:55:42;8.80;99.90
5011;DHT22;2524;54.364;10.072;2024-03-02T04:58:07;8.70;99.90
5011;DHT22;2524;54.364;10.072;2024-03-02T05:00:33;8.70;99.90
5011;DHT22;2524;54.364;10.072;2024-03-02T05:02:59;8.70;99.90
5011;DHT22;2524;54.364;10.072;2024-03-02T05:05:26;8.70;99.90
5011;DHT22;2524;54.364;10.072;2024-03-02T05:07:52;8.70;99.90
5011;DHT22;2524;54.364;10.072;2024-03-02T05:10:17;8.80;99.90
5011;DHT22;2524;54.364;10.072;2024-03-02T05:12:43;8.70;99.90
5011;DHT22;2524;54.364;10.072;2024-03-02T05:15:09;8.80;99.90
5011;DHT22;2524;54.364;10.072;2024-03-02T05:17:36;8.70;99.90
5011;DHT22;2524;54.364;10.072;2024-03-02T05:20:03;8.60;99.90
5011;DHT22;2524;54.364;10.072;2024-03-02T05:22:29;8.60;99.90
5011;DHT22;2524;54.364;10.072;2024-03-02T05:24:54;8.60;99.90
5011;DHT22;2524;54.364;10.072;2024-03-02T05:27:20;8.70;99.90
5011;DHT22;2524;54.364;10.072;2024-03-02T05:29:46;8.60;99.90
5011;DHT22;2524;54.364;10.072;2024-03-02T05:32:12;8.60;99.90
5011;DHT22;2524;54.364;10.072;2024-03-02T05:34:38;8.70;99.90
5011;DHT22;2524;54.364;10.072;2024-03-02T05:37:03;8.50;99.90
5011;DHT22;2524;54.364;10.072;2024-03-02T05:39:29;8.50;99.90
5011;DHT22;2524;54.364;10.072;2024-03-02T05:41:54;8.50;99.90
5011;DHT22;2524;54.364;10.072;2024-03-02T05:44:20;8.50;99.90
5011;DHT22;2524;54.364;10.072;2024-03-02T05:46:46;8.40;99.90
5011;DHT22;2524;54.364;10.072;2024-03-02T05:49:11;8.60;99.90
5011;DHT22;2524;54.364;10.072;2024-03-02T05:51:37;8.40;99.90
5011;DHT22;2524;54.364;10.072;2024-03-02T05:54:03;8.40;99.90
5011;DHT22;2524;54.364;10.072;2024-03-02T05:56:28;8.40;99.90
5011;DHT22;2524;54.364;10.072;2024-03-02T05:58:54;8.40;99.90
5011;DHT22;2524;54.364;10.072;2024-03-02T06:01:34;8.40;99.90
5011;DHT22;2524;54.364;10.072;2024-03-02T06:03:59;8.40;99.90
5011;DHT22;2524;54.364;10.072;2024-03-02T06:06:25;8.40;99.90
5011;DHT22;2524;54.364;10.072;2024-03-02T06:08:51;8.30;99.90
5011;DHT22;2524;54.364;10.072;2024-03-02T06:11:19;8.30;99.90
5011;DHT22;2524;54.364;10.072;2024-03-02T06:13:44;8.40;99.90
5011;DHT22;2524;54.364;10.072;2024-03-02T06:16:11;8.50;99.90
5011;DHT22;2524;54.364;10.072;2024-03-02T06:18:37;8.40;99.90
5011;DHT22;2524;54.364;10.072;2024-03-02T06:21:03;8.50;99.90
5011;DHT22;2524;54.364;10.072;2024-03-02T06:23:29;8.40;99.90
5011;DHT22;2524;54.364;10.072;2024-03-02T06:25:54;8.60;99.90
5011;DHT22;2524;54.364;10.072;2024-03-02T06:28:20;8.40;99.90
5011;DHT22;2524;54.364;10.072;2024-03-02T06:30:46;8.40;99.90
5011;DHT22;2524;54.364;10.072;2024-03-02T06:33:12;8.50;99.90
5011;DHT22;2524;54.364;10.072;2024-03-02T06:35:37;8.40;99.90
5011;DHT22;2524;54.364;10.072;2024-03-02T06:38:04;8.40;99.90
5011;DHT22;2524;54.364;10.072;2024-03-02T06:40:30;8.40;99.90
5011;DHT22;2524;54.364;10.072;2024-03-02T06:42:55;8.50;99.90
5011;DHT22;2524;54.364;10.072;2024-03-02T06:45:21;8.50;99.90
5011;DHT22;2524;54.364;10.072;2024-03-02T06:47:46;8.40;99.90
5011;DHT22;2524;54.364;10.072;2024-03-02T06:50:12;8.50;99.90
5011;DHT22;2524;54.364;10.072;2024-03-02T06:52:38;8.40;99.90
5011;DHT22;2524;54.364;10.072;2024-03-02T06:55:04;8.50;99.90
5011;DHT22;2524;54.364;10.072;2024-03-02T06:57:30;8.40;99.90
5011;DHT22;2524;54.364;10.072;2024-03-02T06:59:56;8.40;99.90
5011;DHT22;2524;54.364;10.072;2024-03-02T07:02:24;8.40;99.90
5011;DHT22;2524;54.364;10.072;2024-03-02T07:04:52;8.40;99.90
5011;DHT22;2524;54.364;10.072;2024-03-02T07:07:18;8.40;99.90
5011;DHT22;2524;54.364;10.072;2024-03-02T07:09:46;8.40;99.90
5011;DHT22;2524;54.364;10.072;2024-03-02T07:12:11;8.40;99.90
5011;DHT22;2524;54.364;10.072;2024-03-02T07:14:37;8.50;99.90
5011;DHT22;2524;54.364;10.072;2024-03-02T07:17:21;8.50;99.90
5011;DHT22;2524;54.364;10.072;2024-03-02T07:19:46;8.60;99.90
5011;DHT22;2524;54.364;10.072;2024-03-02T07:22:12;8.50;99.90
5011;DHT22;2524;54.364;10.072;2024-03-02T07:24:44;8.70;99.90
5011;DHT22;2524;54.364;10.072;2024-03-02T07:27:12;8.60;99.90
5011;DHT22;2524;54.364;10.072;2024-03-02T07:29:38;8.60;99.90
5011;DHT22;2524;54.364;10.072;2024-03-02T07:32:05;8.60;99.90
5011;DHT22;2524;54.364;10.072;2024-03-02T07:34:30;8.60;99.90
5011;DHT22;2524;54.364;10.072;2024-03-02T07:36:56;8.70;99.90
5011;DHT22;2524;54.364;10.072;2024-03-02T07:39:22;8.70;99.90
5011;DHT22;2524;54.364;10.072;2024-03-02T07:41:48;8.60;99.90
5011;DHT22;2524;54.364;10.072;2024-03-02T07:44:14;8.80;99.90
5011;DHT22;2524;54.364;10.072;2024-03-02T07:46:43;8.70;99.90
5011;DHT22;2524;54.364;10.072;2024-03-02T07:49:09;8.70;99.90
5011;DHT22;2524;54.364;10.072;2024-03-02T07:51:35;8.80;99.90
5011;DHT22;2524;54.364;10.072;2024-03-02T07:54:01;8.70;99.90
5011;DHT22;2524;54.364;10.072;2024-03-02T07:56:28;8.70;99.90
5011;DHT22;2524;54.364;10.072;2024-03-02T07:58:54;8.80;99.90
5011;DHT22;2524;54.364;10.072;2024-03-02T08:01:22;8.90;99.90
5011;DHT22;2524;54.364;10.072;2024-03-02T08:03:48;8.80;99.90
5011;DHT22;2524;54.364;10.072;2024-03-02T08:06:16;8.80;99.90
5011;DHT22;2524;54.364;10.072;2024-03-02T08:08:42;8.80;99.90
5011;DHT22;2524;54.364;10.072;2024-03-02T08:11:07;8.80;99.90
5011;DHT22;2524;54.364;10.072;2024-03-02T08:13:33;8.90;99.90
5011;DHT22;2524;54.364;10.072;2024-03-02T08:15:59;8.90;99.90
5011;DHT22;2524;54.364;10.072;2024-03-02T08:18:24;8.90;99.90
5011;DHT22;2524;54.364;10.072;2024-03-02T08:20:50;8.90;99.90
5011;DHT22;2524;54.364;10.072;2024-03-02T08:23:16;9.00;99.90
5011;DHT22;2524;54.364;10.072;2024-03-02T08:25:42;9.00;99.90
5011;DHT22;2524;54.364;10.072;2024-03-02T08:28:08;9.00;99.90
5011;DHT22;2524;54.364;10.072;2024-03-02T08:30:33;9.10;99.90
5011;DHT22;2524;54.364;10.072;2024-03-02T08:33:00;9.20;99.90
5011;DHT22;2524;54.364;10.072;2024-03-02T08:35:25;9.10;99.90
5011;DHT22;2524;54.364;10.072;2024-03-02T08:37:51;9.10;99.90
5011;DHT22;2524;54.364;10.072;2024-03-02T08:40:16;9.20;99.90
5011;DHT22;2524;54.364;10.072;2024-03-02T08:42:42;9.20;99.90
5011;DHT22;2524;54.364;10.072;2024-03-02T08:45:08;9.20;99.90
5011;DHT22;2524;54.364;10.072;2024-03-02T08:47:34;9.20;99.90
5011;DHT22;2524;54.364;10.072;2024-03-02T08:50:00;9.30;99.90
5011;DHT22;2524;54.364;10.072;2024-03-02T08:52:26;9.20;99.90
5011;DHT22;2524;54.364;10.072;2024-03-02T08:54:52;9.20;99.90
5011;DHT22;2524;54.364;10.072;2024-03-02T08:57:18;9.20;99.90
5011;DHT22;2524;54.364;10.072;2024-03-02T08:59:44;9.30;99.90
5011;DHT22;2524;54.364;10.072;2024-03-02T09:02:10;9.40;99.90
5011;DHT22;2524;54.364;10.072;2024-03-02T09:04:36;9.40;99.90
5011;DHT22;2524;54.364;10.072;2024-03-02T09:07:01;9.20;99.90
5011;DHT22;2524;54.364;10.072;2024-03-02T09:09:27;9.40;99.90
5011;DHT22;2524;54.364;10.072;2024-03-02T09:11:52;9.40;99.90
5011;DHT22;2524;54.364;10.072;2024-03-02T09:14:20;9.30;99.90
5011;DHT22;2524;54.364;10.072;2024-03-02T09:16:46;9.40;99.90
5011;DHT22;2524;54.364;10.072;2024-03-02T09:19:12;9.50;99.90
5011;DHT22;2524;54.364;10.072;2024-03-02T09:21:37;9.60;99.90
5011;DHT22;2524;54.364;10.072;2024-03-02T09:24:03;9.50;99.90
5011;DHT22;2524;54.364;10.072;2024-03-02T09:26:29;9.60;99.90
5011;DHT22;2524;54.364;10.072;2024-03-02T09:28:55;9.70;99.90
5011;DHT22;2524;54.364;10.072;2024-03-02T09:31:20;9.70;99.90
5011;DHT22;2524;54.364;10.072;2024-03-02T09:33:46;9.80;99.90
5011;DHT22;2524;54.364;10.072;2024-03-02T09:36:18;9.80;99.90
5011;DHT22;2524;54.364;10.072;2024-03-02T09:38:46;9.80;99.90
5011;DHT22;2524;54.364;10.072;2024-03-02T09:41:14;9.90;99.90
5011;DHT22;2524;54.364;10.072;2024-03-02T09:43:40;9.90;99.90
5011;DHT22;2524;54.364;10.072;2024-03-02T09:46:10;9.90;99.90
5011;DHT22;2524;54.364;10.072;2024-03-02T09:48:36;9.90;99.90
5011;DHT22;2524;54.364;10.072;2024-03-02T09:51:01;10.00;99.90
5011;DHT22;2524;54.364;10.072;2024-03-02T09:53:32;10.00;99.90
5011;DHT22;2524;54.364;10.072;2024-03-02T09:56:01;10.00;99.90
5011;DHT22;2524;54.364;10.072;2024-03-02T09:58:27;10.00;99.90
5011;DHT22;2524;54.364;10.072;2024-03-02T10:00:53;10.00;99.90
5011;DHT22;2524;54.364;10.072;2024-03-02T10:03:19;10.10;99.90
5011;DHT22;2524;54.364;10.072;2024-03-02T10:05:45;10.10;99.90
5011;DHT22;2524;54.364;10.072;2024-03-02T10:08:10;10.20;99.90
5011;DHT22;2524;54.364;10.072;2024-03-02T10:10:37;10.20;99.90
5011;DHT22;2524;54.364;10.072;2024-03-02T10:13:07;10.30;99.90
5011;DHT22;2524;54.364;10.072;2024-03-02T10:15:33;10.50;99.90
5011;DHT22;2524;54.364;10.072;2024-03-02T10:17:59;10.40;99.90
5011;DHT22;2524;54.364;10.072;2024-03-02T10:20:26;10.50;99.90
5011;DHT22;2524;54.364;10.072;2024-03-02T10:22:54;10.60;99.90
5011;DHT22;2524;54.364;10.072;2024-03-02T10:25:33;10.60;99.90
5011;DHT22;2524;54.364;10.072;2024-03-02T10:28:00;10.70;99.90
5011;DHT22;2524;54.364;10.072;2024-03-02T10:30:26;10.90;99.90
5011;DHT22;2524;54.364;10.072;2024-03-02T10:32:55;11.10;99.90
5011;DHT22;2524;54.364;10.072;2024-03-02T10:35:22;11.10;99.90
5011;DHT22;2524;54.364;10.072;2024-03-02T10:37:52;11.10;99.90
5011;DHT22;2524;54.364;10.072;2024-03-02T10:40:18;11.20;99.90
5011;DHT22;2524;54.364;10.072;2024-03-02T10:42:47;11.30;99.90
5011;DHT22;2524;54.364;10.072;2024-03-02T10:45:15;11.30;99.90
5011;DHT22;2524;54.364;10.072;2024-03-02T10:47:42;11.40;99.90
5011;DHT22;2524;54.364;10.072;2024-03-02T10:50:09;11.40;99.90
5011;DHT22;2524;54.364;10.072;2024-03-02T10:52:36;11.50;99.90
5011;DHT22;2524;54.364;10.072;2024-03-02T10:55:02;11.50;99.90
5011;DHT22;2524;54.364;10.072;2024-03-02T10:57:40;11.50;99.90
5011;DHT22;2524;54.364;10.072;2024-03-02T11:00:08;11.60;99.90
5011;DHT22;2524;54.364;10.072;2024-03-02T11:02:42;11.60;99.90
5011;DHT22;2524;54.364;10.072;2024-03-02T11:05:12;11.70;99.90
5011;DHT22;2524;54.364;10.072;2024-03-02T11:07:43;11.70;99.90
5011;DHT22;2524;54.364;10.072;2024-03-02T11:10:09;11.70;99.90
5011;DHT22;2524;54.364;10.072;2024-03-02T11:15:01;11.80;99.90
5011;DHT22;2524;54.364;10.072;2024-03-02T11:17:29;11.80;99.90
5011;DHT22;2524;54.364;10.072;2024-03-02T11:19:55;11.90;99.90
5011;DHT22;2524;54.364;10.072;2024-03-02T11:22:22;11.90;99.90
5011;DHT22;2524;54.364;10.072;2024-03-02T11:24:49;11.90;99.90
5011;DHT22;2524;54.364;10.072;2024-03-02T11:28:18;12.00;99.90
5011;DHT22;2524;54.364;10.072;2024-03-02T11:33:00;12.10;99.90
5011;DHT22;2524;54.364;10.072;2024-03-02T11:35:31;12.10;99.90
5011;DHT22;2524;54.364;10.072;2024-03-02T11:37:57;12.20;99.90
5011;DHT22;2524;54.364;10.072;2024-03-02T11:40:25;12.30;99.90
5011;DHT22;2524;54.364;10.072;2024-03-02T11:42:51;12.20;99.90
5011;DHT22;2524;54.364;10.072;2024-03-02T11:45:22;12.30;99.90
5011;DHT22;2524;54.364;10.072;2024-03-02T11:47:53;12.30;99.90
5011;DHT22;2524;54.364;10.072;2024-03-02T11:50:34;12.50;99.90
5011;DHT22;2524;54.364;10.072;2024-03-02T11:53:00;12.40;99.90
5011;DHT22;2524;54.364;10.072;2024-03-02T11:55:26;12.50;99.90
5011;DHT22;2524;54.364;10.072;2024-03-02T11:57:52;12.50;99.90
5011;DHT22;2524;54.364;10.072;2024-03-02T12:00:19;12.60;99.90
5011;DHT22;2524;54.364;10.072;2024-03-02T12:03:03;12.60;99.90
5011;DHT22;2524;54.364;10.072;2024-03-02T12:05:30;12.60;99.90
5011;DHT22;2524;54.364;10.072;2024-03-02T12:08:00;12.60;99.90
5011;DHT22;2524;54.364;10.072;2024-03-02T12:10:27;12.60;99.90
5011;DHT22;2524;54.364;10.072;2024-03-02T12:13:00;12.60;99.90
5011;DHT22;2524;54.364;10.072;2024-03-02T12:15:35;12.60;99.90
5011;DHT22;2524;54.364;10.072;2024-03-02T12:18:04;12.60;99.90
5011;DHT22;2524;54.364;10.072;2024-03-02T12:20:32;12.60;99.90
5011;DHT22;2524;54.364;10.072;2024-03-02T12:22:59;12.60;99.90
5011;DHT22;2524;54.364;10.072;2024-03-02T12:25:25;12.60;99.90
5011;DHT22;2524;54.364;10.072;2024-03-02T12:27:56;12.60;99.90
5011;DHT22;2524;54.364;10.072;2024-03-02T12:30:23;12.50;99.90
5011;DHT22;2524;54.364;10.072;2024-03-02T12:32:49;12.50;99.90
5011;DHT22;2524;54.364;10.072;2024-03-02T12:38:15;12.40;99.90
5011;DHT22;2524;54.364;10.072;2024-03-02T12:40:40;12.30;99.90
5011;DHT22;2524;54.364;10.072;2024-03-02T12:43:06;12.30;99.90
5011;DHT22;2524;54.364;10.072;2024-03-02T12:45:32;12.30;99.90
5011;DHT22;2524;54.364;10.072;2024-03-02T12:48:00;12.30;99.90
5011;DHT22;2524;54.364;10.072;2024-03-02T12:50:26;12.30;99.90
5011;DHT22;2524;54.364;10.072;2024-03-02T12:52:54;12.20;99.90
5011;DHT22;2524;54.364;10.072;2024-03-02T12:55:21;12.20;99.90
5011;DHT22;2524;54.364;10.072;2024-03-02T12:57:50;12.20;99.90
5011;DHT22;2524;54.364;10.072;2024-03-02T13:00:18;12.20;99.90
5011;DHT22;2524;54.364;10.072;2024-03-02T13:02:45;12.30;99.90
5011;DHT22;2524;54.364;10.072;2024-03-02T13:05:11;12.10;99.90
5011;DHT22;2524;54.364;10.072;2024-03-02T13:07:40;12.20;99.90
5011;DHT22;2524;54.364;10.072;2024-03-02T13:10:06;12.10;99.90
5011;DHT22;2524;54.364;10.072;2024-03-02T13:12:36;12.10;99.90
5011;DHT22;2524;54.364;10.072;2024-03-02T13:15:03;12.10;99.90
5011;DHT22;2524;54.364;10.072;2024-03-02T13:17:29;12.10;99.90
5011;DHT22;2524;54.364;10.072;2024-03-02T13:19:59;12.10;99.90
5011;DHT22;2524;54.364;10.072;2024-03-02T13:22:25;12.10;99.90
5011;DHT22;2524;54.364;10.072;2024-03-02T13:24:52;12.10;99.90
5011;DHT22;2524;54.364;10.072;2024-03-02T13:27:19;12.10;99.90
5011;DHT22;2524;54.364;10.072;2024-03-02T13:29:48;12.10;99.90
5011;DHT22;2524;54.364;10.072;2024-03-02T13:32:14;12.10;99.90
5011;DHT22;2524;54.364;10.072;2024-03-02T13:34:40;12.10;99.90
5011;DHT22;2524;54.364;10.072;2024-03-02T13:37:06;12.10;99.90
5011;DHT22;2524;54.364;10.072;2024-03-02T13:39:32;12.20;99.90
5011;DHT22;2524;54.364;10.072;2024-03-02T13:41:58;12.10;99.90
5011;DHT22;2524;54.364;10.072;2024-03-02T13:44:31;12.10;99.90
5011;DHT22;2524;54.364;10.072;2024-03-02T13:46:56;12.10;99.90
5011;DHT22;2524;54.364;10.072;2024-03-02T13:49:23;12.10;99.90
5011;DHT22;2524;54.364;10.072;2024-03-02T13:51:49;12.10;99.90
5011;DHT22;2524;54.364;10.072;2024-03-02T13:54:15;12.30;99.90
5011;DHT22;2524;54.364;10.072;2024-03-02T13:56:42;12.10;99.90
5011;DHT22;2524;54.364;10.072;2024-03-02T13:59:08;12.10;99.90
5011;DHT22;2524;54.364;10.072;2024-03-02T14:01:34;12.10;99.90
5011;DHT22;2524;54.364;10.072;2024-03-02T14:03:59;12.10;99.90
5011;DHT22;2524;54.364;10.072;2024-03-02T14:06:27;12.10;99.90
5011;DHT22;2524;54.364;10.072;2024-03-02T14:08:53;12.10;99.90
5011;DHT22;2524;54.364;10.072;2024-03-02T14:11:19;12.10;99.90
5011;DHT22;2524;54.364;10.072;2024-03-02T14:13:45;12.10;99.90
5011;DHT22;2524;54.364;10.072;2024-03-02T14:16:19;12.20;99.90
5011;DHT22;2524;54.364;10.072;2024-03-02T14:18:45;12.20;99.90
5011;DHT22;2524;54.364;10.072;2024-03-02T14:21:11;12.10;99.90
5011;DHT22;2524;54.364;10.072;2024-03-02T14:23:36;12.20;99.90
5011;DHT22;2524;54.364;10.072;2024-03-02T14:26:02;12.30;99.90
5011;DHT22;2524;54.364;10.072;2024-03-02T14:28:28;12.20;99.90
5011;DHT22;2524;54.364;10.072;2024-03-02T14:30:54;12.20;99.90
5011;DHT22;2524;54.364;10.072;2024-03-02T14:33:20;12.20;99.90
5011;DHT22;2524;54.364;10.072;2024-03-02T14:35:46;12.20;99.90
5011;DHT22;2524;54.364;10.072;2024-03-02T14:38:12;12.20;99.90
5011;DHT22;2524;54.364;10.072;2024-03-02T14:40:37;12.30;99.90
5011;DHT22;2524;54.364;10.072;2024-03-02T14:43:05;12.30;99.90
5011;DHT22;2524;54.364;10.072;2024-03-02T14:45:30;12.40;99.90
5011;DHT22;2524;54.364;10.072;2024-03-02T14:47:56;12.30;99.90
5011;DHT22;2524;54.364;10.072;2024-03-02T14:50:26;12.30;99.90
5011;DHT22;2524;54.364;10.072;2024-03-02T14:52:52;12.40;99.90
5011;DHT22;2524;54.364;10.072;2024-03-02T14:55:17;12.40;99.90
5011;DHT22;2524;54.364;10.072;2024-03-02T14:57:43;12.50;99.90
5011;DHT22;2524;54.364;10.072;2024-03-02T15:00:09;12.60;99.90
5011;DHT22;2524;54.364;10.072;2024-03-02T15:02:37;12.70;99.90
5011;DHT22;2524;54.364;10.072;2024-03-02T15:05:03;12.80;99.90
5011;DHT22;2524;54.364;10.072;2024-03-02T15:07:29;12.90;99.90
5011;DHT22;2524;54.364;10.072;2024-03-02T15:09:54;13.00;99.90
5011;DHT22;2524;54.364;10.072;2024-03-02T15:12:21;13.10;99.90
5011;DHT22;2524;54.364;10.072;2024-03-02T15:14:47;13.20;99.90
5011;DHT22;2524;54.364;10.072;2024-03-02T15:17:14;13.30;99.90
5011;DHT22;2524;54.364;10.072;2024-03-02T15:19:42;13.40;99.90
5011;DHT22;2524;54.364;10.072;2024-03-02T15:22:08;13.30;99.90
5011;DHT22;2524;54.364;10.072;2024-03-02T15:24:34;13.30;99.90
5011;DHT22;2524;54.364;10.072;2024-03-02T15:26:59;13.10;99.90
5011;DHT22;2524;54.364;10.072;2024-03-02T15:29:25;13.10;99.90
5011;DHT22;2524;54.364;10.072;2024-03-02T15:31:54;13.00;99.90
5011;DHT22;2524;54.364;10.072;2024-03-02T15:34:20;13.00;99.90
5011;DHT22;2524;54.364;10.072;2024-03-02T15:36:46;12.90;99.90
5011;DHT22;2524;54.364;10.072;2024-03-02T15:39:11;13.00;99.90
5011;DHT22;2524;54.364;10.072;2024-03-02T15:41:37;13.00;99.90
5011;DHT22;2524;54.364;10.072;2024-03-02T15:44:06;13.00;99.90
5011;DHT22;2524;54.364;10.072;2024-03-02T15:46:33;13.10;99.90
5011;DHT22;2524;54.364;10.072;2024-03-02T15:48:59;13.20;99.90
5011;DHT22;2524;54.364;10.072;2024-03-02T15:51:26;13.30;99.90
5011;DHT22;2524;54.364;10.072;2024-03-02T15:53:52;13.30;99.90
5011;DHT22;2524;54.364;10.072;2024-03-02T15:56:17;13.20;99.90
5011;DHT22;2524;54.364;10.072;2024-03-02T15:58:43;13.20;99.90
5011;DHT22;2524;54.364;10.072;2024-03-02T16:01:09;13.20;99.90
5011;DHT22;2524;54.364;10.072;2024-03-02T16:03:34;13.20;99.90